Time;durP1;ratioP1;P1;durP2;ratioP2;P2;SDS_P1;SDS_P2;PMS_P1;PMS_P2;Temp;Humidity;BMP_temperature;BMP_pressure;BME280_temperature;BME280_humidity;BME280_pressure;Samples;Min_cycle;Max_cycle;Signal;HPM_P1;HPM_P2
2023/03/31 00:02:23;;;;;;;12.15;3.78;;;;;;;9.98;100.00;100295.00;4913639;29;20047;-86
2023/03/31 00:04:58;;;;;;;9.38;3.30;;;;;;;10.01;100.00;100294.78;4896197;29;20508;-86
2023/03/31 00:07:30;;;;;;;10.63;3.40;;;;;;;9.99;100.00;100280.88;4893041;29;20139;-85
2023/03/31 00:10:02;;;;;;;15.15;4.25;;;;;;;10.00;100.00;100274.66;4919211;29;20044;-86
2023/03/31 00:12:27;;;;;;;9.98;3.45;;;;;;;9.97;100.00;100266.22;4908601;29;20044;-87
2023/03/31 00:14:58;;;;;;;10.35;3.25;;;;;;;9.96;100.00;100248.78;4911855;29;20106;-86
2023/03/31 00:17:27;;;;;;;9.15;3.60;;;;;;;9.98;100.00;100252.09;4888980;29;20044;-86
2023/03/31 00:19:59;;;;;;;10.20;3.13;;;;;;;9.94;100.00;100245.44;4884958;29;20578;-84
2023/03/31 00:22:27;;;;;;;12.10;3.37;;;;;;;9.93;100.00;100239.34;4911152;29;20044;-86
2023/03/31 00:24:59;;;;;;;10.07;3.22;;;;;;;9.91;100.00;100233.38;4908035;29;20039;-87
2023/03/31 00:27:28;;;;;;;9.23;3.40;;;;;;;9.89;100.00;100223.94;4883828;29;20072;-86
2023/03/31 00:29:57;;;;;;;9.82;3.40;;;;;;;9.86;100.00;100217.16;4951374;29;20282;-85
2023/03/31 00:32:22;;;;;;;14.88;3.35;;;;;;;9.84;100.00;100216.44;4949071;29;20479;-86
2023/03/31 00:35:01;;;;;;;12.05;3.90;;;;;;;9.82;100.00;100213.09;4951089;29;20043;-86
2023/03/31 00:37:46;;;;;;;9.27;2.70;;;;;;;9.84;100.00;100211.19;4949743;29;20047;-86
2023/03/31 00:40:11;;;;;;;10.30;3.00;;;;;;;9.81;100.00;100208.81;4951064;29;20141;-86
2023/03/31 00:42:47;;;;;;;8.50;3.28;;;;;;;9.80;100.00;100201.88;4929790;29;20047;-86
2023/03/31 00:45:15;;;;;;;10.38;3.00;;;;;;;9.81;100.00;100187.78;4894690;29;20035;-86
2023/03/31 00:47:47;;;;;;;9.77;2.97;;;;;;;9.80;100.00;100188.75;4921917;29;20059;-86
2023/03/31 00:50:51;;;;;;;10.18;2.95;;;;;;;9.82;100.00;100189.47;4965821;28;20423;-86
2023/03/31 00:53:23;;;;;;;11.57;2.90;;;;;;;9.77;100.00;100181.13;4932398;29;20043;-86
2023/03/31 00:55:54;;;;;;;11.18;3.08;;;;;;;9.79;100.00;100181.84;4949142;29;20119;-86
2023/03/31 00:58:27;;;;;;;10.35;2.92;;;;;;;9.77;100.00;100175.88;4950463;29;20075;-85
2023/03/31 01:01:02;;;;;;;10.82;3.25;;;;;;;9.81;100.00;100176.44;4917124;29;20036;-86
2023/03/31 01:03:37;;;;;;;10.02;2.90;;;;;;;9.78;100.00;100169.66;4911555;29;20044;-86
2023/03/31 01:06:15;;;;;;;12.73;3.42;;;;;;;9.81;100.00;100168.56;4927666;29;20483;-87
2023/03/31 01:08:48;;;;;;;12.73;2.97;;;;;;;9.81;100.00;100166.78;4934542;29;20035;-86
2023/03/31 01:11:40;;;;;;;12.70;2.95;;;;;;;9.81;100.00;100156.25;4951280;29;20091;-86
2023/03/31 01:14:11;;;;;;;10.82;2.88;;;;;;;9.83;100.00;100151.72;4924475;29;20043;-87
2023/03/31 01:16:44;;;;;;;14.10;3.53;;;;;;;9.85;100.00;100157.69;4917678;29;20074;-87
2023/03/31 01:19:38;;;;;;;11.50;2.97;;;;;;;9.86;100.00;100154.09;4949707;29;20047;-87
2023/03/31 01:22:04;;;;;;;;;;;;;;;9.92;100.00;100148.31;4952040;29;20043;-87
2023/03/31 01:25:03;;;;;;;10.65;2.97;;;;;;;9.88;100.00;100140.81;4949053;29;20363;-87
2023/03/31 01:28:06;;;;;;;13.45;3.55;;;;;;;9.86;100.00;100133.06;4946827;29;20385;-88
2023/03/31 01:31:11;;;;;;;17.43;3.67;;;;;;;9.88;100.00;100130.31;4941802;29;20027;-87
2023/03/31 01:34:05;;;;;;;13.27;3.40;;;;;;;9.86;100.00;100122.56;4934873;29;20650;-87
2023/03/31 01:37:18;;;;;;;14.15;3.15;;;;;;;9.84;100.00;100119.22;4910459;29;20032;-87
2023/03/31 01:43:31;;;;;;;17.17;3.65;;;;;;;9.87;100.00;100111.09;4936236;29;20397;-87
2023/03/31 01:46:41;;;;;;;16.70;3.65;;;;;;;9.85;100.00;100099.88;4934031;28;20051;-87
2023/03/31 01:49:59;;;;;;;17.52;3.92;;;;;;;9.85;100.00;100085.91;4926473;29;20529;-87
2023/03/31 01:52:40;;;;;;;18.88;3.95;;;;;;;9.85;100.00;100085.91;4925823;28;20477;-87
2023/03/31 01:55:28;;;;;;;15.88;4.13;;;;;;;9.86;100.00;100074.44;4907656;29;20047;-86
2023/03/31 01:58:04;;;;;;;15.40;3.58;;;;;;;9.83;100.00;100062.38;4910954;29;20653;-86
2023/03/31 02:00:40;;;;;;;16.00;3.40;;;;;;;9.86;100.00;100059.50;4911172;29;20131;-87
2023/03/31 02:03:55;;;;;;;17.63;3.58;;;;;;;9.87;100.00;100045.41;4894031;29;20044;-87
2023/03/31 02:06:56;;;;;;;13.45;3.20;;;;;;;9.84;100.00;100040.41;4905929;29;20043;-85
2023/03/31 02:09:28;;;;;;;15.35;3.55;;;;;;;9.84;100.00;100026.44;4871541;29;20064;-88
2023/03/31 02:14:50;;;;;;;13.73;3.00;;;;;;;9.80;100.00;100010.09;4859982;29;20429;-85
2023/03/31 02:17:29;;;;;;;13.60;3.43;;;;;;;9.79;100.00;100000.56;4838488;29;20510;-85
2023/03/31 02:20:00;;;;;;;14.40;3.38;;;;;;;9.77;100.00;99984.09;4836466;29;20050;-85
2023/03/31 02:22:32;;;;;;;13.65;3.60;;;;;;;9.77;100.00;99976.22;4838488;29;20052;-85
2023/03/31 02:25:08;;;;;;;12.73;3.28;;;;;;;9.77;100.00;99970.13;4834671;29;20050;-88
2023/03/31 02:27:57;;;;;;;15.77;3.58;;;;;;;9.80;100.00;99961.97;4831774;29;20069;-88
2023/03/31 02:30:58;;;;;;;14.50;3.53;;;;;;;9.79;100.00;99953.28;4837952;29;20049;-85
2023/03/31 02:33:24;;;;;;;14.13;3.67;;;;;;;9.78;100.00;99943.72;4865353;29;20040;-88
2023/03/31 02:35:59;;;;;;;21.75;4.05;;;;;;;9.79;100.00;99936.69;4891671;29;20048;-85
2023/03/31 02:38:35;;;;;;;14.70;4.00;;;;;;;9.78;100.00;99917.47;4877405;29;20486;-88
2023/03/31 02:41:00;;;;;;;18.90;4.18;;;;;;;9.80;100.00;99902.41;4893150;29;20044;-89
2023/03/31 02:43:35;;;;;;;14.35;3.53;;;;;;;9.79;100.00;99895.47;4903171;29;20449;-89
2023/03/31 02:46:04;;;;;;;17.10;4.13;;;;;;;9.79;100.00;99898.09;4886466;29;20088;-86
2023/03/31 02:49:02;;;;;;;18.23;4.20;;;;;;;9.80;100.00;99891.06;4912352;29;20040;-86
2023/03/31 02:52:13;;;;;;;15.00;4.03;;;;;;;9.82;100.00;99879.44;4936213;29;20043;-86
2023/03/31 02:55:19;;;;;;;18.00;4.10;;;;;;;9.80;100.00;99860.38;4927181;29;20094;-86
2023/03/31 02:57:57;;;;;;;19.48;4.38;;;;;;;9.80;100.00;99859.53;4949699;29;20054;-86
2023/03/31 03:01:08;;;;;;;20.17;4.22;;;;;;;9.82;100.00;99853.19;4941667;29;20055;-87
2023/03/31 03:04:19;;;;;;;16.40;4.20;;;;;;;9.79;100.00;99840.31;4937667;29;20046;-87
2023/03/31 03:07:25;;;;;;;17.67;4.53;;;;;;;9.79;100.00;99842.94;4877959;29;20044;-86
2023/03/31 03:10:19;;;;;;;15.70;4.10;;;;;;;9.80;100.00;99833.25;4840706;29;20506;-86
2023/03/31 03:12:57;;;;;;;15.55;3.95;;;;;;;9.80;100.00;99838.50;4873817;29;20135;-87
2023/03/31 03:15:43;;;;;;;21.70;4.47;;;;;;;9.78;100.00;99841.28;4897243;29;20033;-86
2023/03/31 03:18:17;;;;;;;18.55;4.22;;;;;;;9.78;100.00;99827.31;4891015;29;20493;-87
2023/03/31 03:23:37;;;;;;;21.13;4.40;;;;;;;9.77;100.00;99818.59;4892622;29;20083;-87
2023/03/31 03:26:21;;;;;;;20.77;4.93;;;;;;;9.76;100.00;99816.94;4891755;29;20037;-87
2023/03/31 03:28:49;;;;;;;15.35;3.65;;;;;;;9.77;100.00;99823.84;4892427;29;20110;-86
2023/03/31 03:31:25;;;;;;;;;;;;;;;;;;;;;
2023/03/31 03:33:57;;;;;;;14.77;3.70;;;;;;;9.76;100.00;99816.94;4892520;29;20492;-86
2023/03/31 03:36:26;;;;;;;16.48;4.10;;;;;;;9.72;100.00;99810.28;4892471;29;20043;-87
2023/03/31 03:39:11;;;;;;;18.90;3.90;;;;;;;9.77;100.00;99804.63;4891413;29;20040;-87
2023/03/31 03:41:40;;;;;;;17.92;3.72;;;;;;;9.72;100.00;99794.53;4863532;29;20494;-86
2023/03/31 03:44:28;;;;;;;16.67;3.60;;;;;;;9.72;100.00;99784.84;4888767;29;20421;-86
2023/03/31 03:46:57;;;;;;;14.07;3.35;;;;;;;9.73;100.00;99765.50;4916401;29;20059;-86
2023/03/31 03:49:22;;;;;;;17.75;4.07;;;;;;;9.68;100.00;99761.63;4900740;29;20122;-86
2023/03/31 03:51:53;;;;;;;16.42;4.10;;;;;;;9.70;100.00;99757.06;4940064;29;20115;-85
2023/03/31 03:54:22;;;;;;;13.77;3.33;;;;;;;9.67;100.00;99757.34;4896607;29;20040;-85
2023/03/31 03:56:57;;;;;;;15.57;2.85;;;;;;;9.64;100.00;99744.47;4912618;29;20040;-86
2023/03/31 03:59:28;;;;;;;18.38;3.63;;;;;;;9.65;100.00;99735.63;4927603;29;20051;-86
2023/03/31 04:02:03;;;;;;;16.20;3.53;;;;;;;9.63;100.00;99734.94;4929130;29;20039;-86
2023/03/31 04:04:37;;;;;;;17.65;3.50;;;;;;;9.62;100.00;99728.03;4910495;29;20817;-86
2023/03/31 04:07:11;;;;;;;10.55;3.13;;;;;;;9.57;100.00;99715.28;4897842;29;20040;-85
2023/03/31 04:09:36;;;;;;;14.30;3.50;;;;;;;9.57;100.00;99706.56;4914697;29;20059;-86
2023/03/31 04:12:05;;;;;;;16.05;3.50;;;;;;;9.56;100.00;99694.41;4930014;29;20119;-86
2023/03/31 04:17:31;;;;;;;15.88;2.90;;;;;;;9.55;100.00;99688.31;4912648;29;20032;-86
2023/03/31 04:20:10;;;;;;;14.65;2.97;;;;;;;9.56;100.00;99683.91;4926788;29;20055;-86
2023/03/31 04:22:49;;;;;;;11.13;2.83;;;;;;;9.54;100.00;99681.41;4882965;29;20049;-88
2023/03/31 04:25:30;;;;;;;13.88;3.30;;;;;;;9.55;100.00;99671.72;4906976;29;20040;-89
2023/03/31 04:27:59;;;;;;;11.05;2.85;;;;;;;9.52;100.00;99661.50;4908569;29;20174;-86
2023/03/31 04:30:31;;;;;;;10.70;2.70;;;;;;;9.49;100.00;99656.53;4894609;29;20033;-88
2023/03/31 04:33:02;;;;;;;12.40;3.15;;;;;;;9.47;100.00;99643.53;4929965;29;20040;-86
2023/03/31 04:35:48;;;;;;;12.63;2.50;;;;;;;9.47;100.00;99640.09;4873346;29;20517;-85
2023/03/31 04:38:58;;;;;;;11.68;2.72;;;;;;;9.53;100.00;99637.72;4860523;29;20495;-85
2023/03/31 04:41:27;;;;;;;10.55;2.47;;;;;;;9.51;100.00;99623.91;4835745;29;20042;-86
2023/03/31 04:43:59;;;;;;;13.45;2.92;;;;;;;9.49;100.00;99622.41;4836552;29;20106;-85
2023/03/31 04:46:33;;;;;;;13.35;2.88;;;;;;;9.47;100.00;99616.44;4844996;29;20054;-85
2023/03/31 04:48:59;;;;;;;9.52;2.40;;;;;;;9.47;100.00;99612.03;4841001;29;20041;-86
2023/03/31 04:51:39;;;;;;;11.88;2.88;;;;;;;9.48;100.00;99607.59;4870623;29;20131;-88
2023/03/31 04:54:05;;;;;;;10.65;2.67;;;;;;;9.46;100.00;99599.03;4872926;29;20045;-86
2023/03/31 04:56:33;;;;;;;11.20;2.30;;;;;;;9.48;100.00;99591.84;4856091;29;20044;-85
2023/03/31 04:59:08;;;;;;;11.02;2.42;;;;;;;9.46;100.00;99599.03;4845094;29;20050;-85
2023/03/31 05:01:36;;;;;;;10.65;2.50;;;;;;;9.45;100.00;99597.38;4851094;29;20857;-85
2023/03/31 05:04:10;;;;;;;12.10;2.63;;;;;;;9.43;100.00;99593.09;4862726;29;20179;-84
2023/03/31 05:06:39;;;;;;;8.98;2.33;;;;;;;9.46;100.00;99585.91;4871639;29;20405;-84
2023/03/31 05:09:05;;;;;;;10.82;2.30;;;;;;;9.44;100.00;99572.94;4871172;29;20060;-85
2023/03/31 05:11:31;;;;;;;12.35;2.83;;;;;;;9.42;100.00;99567.81;4881023;29;20032;-85
2023/03/31 05:13:56;;;;;;;9.82;2.42;;;;;;;9.40;100.00;99559.25;4872664;29;20037;-85
2023/03/31 05:16:34;;;;;;;9.35;2.58;;;;;;;9.38;100.00;99550.69;4882345;29;20033;-85
2023/03/31 05:19:05;;;;;;;11.02;2.45;;;;;;;9.38;100.00;99550.69;4892302;29;20104;-85
2023/03/31 05:21:34;;;;;;;9.57;2.53;;;;;;;9.36;100.00;99555.25;4909746;29;20512;-85
2023/03/31 05:23:59;;;;;;;10.20;2.47;;;;;;;9.34;100.00;99538.81;4926043;29;20036;-86
2023/03/31 05:26:31;;;;;;;9.63;2.35;;;;;;;9.33;100.00;99537.16;4909860;29;20605;-85
2023/03/31 05:28:57;;;;;;;10.20;2.65;;;;;;;9.35;100.00;99535.22;4904228;29;20047;-87
2023/03/31 05:31:22;;;;;;;10.88;2.63;;;;;;;9.34;100.00;99532.72;4917143;29;20424;-85
2023/03/31 05:33:56;;;;;;;10.95;2.50;;;;;;;9.34;100.00;99527.47;4929251;29;20563;-87
2023/03/31 05:36:42;;;;;;;11.82;2.60;;;;;;;9.33;100.00;99526.66;4928503;29;20126;-87
2023/03/31 05:39:14;;;;;;;8.23;2.20;;;;;;;9.33;100.00;99524.03;4912007;29;20039;-87
2023/03/31 05:41:40;;;;;;;9.18;2.25;;;;;;;9.33;100.00;99523.19;4932804;29;20055;-87
2023/03/31 05:44:08;;;;;;;7.07;2.30;;;;;;;9.29;100.00;99524.44;4933210;29;20039;-86
2023/03/31 05:46:33;;;;;;;7.63;2.30;;;;;;;9.32;100.00;99526.78;4916995;29;21003;-87
2023/03/31 05:49:01;;;;;;;8.65;2.22;;;;;;;9.30;100.00;99519.06;4927902;29;20120;-86
2023/03/31 05:51:27;;;;;;;7.68;2.38;;;;;;;9.28;100.00;99515.75;4930133;29;20092;-89
2023/03/31 05:53:55;;;;;;;9.75;2.60;;;;;;;9.30;100.00;99505.09;4916491;29;20032;-88
2023/03/31 05:56:21;;;;;;;10.98;2.28;;;;;;;9.27;100.00;99506.22;4916249;29;20047;-89
2023/03/31 05:58:52;;;;;;;12.10;2.70;;;;;;;9.27;100.00;99502.75;4932344;29;20404;-86
2023/03/31 06:01:28;;;;;;;8.73;2.50;;;;;;;9.26;100.00;99503.72;4922326;29;20457;-89
2023/03/31 06:04:03;;;;;;;9.70;2.85;;;;;;;9.25;100.00;99505.50;4900065;29;20473;-88
2023/03/31 06:06:33;;;;;;;7.95;2.42;;;;;;;9.23;100.00;99499.56;4896146;29;20047;-87
2023/03/31 06:09:05;;;;;;;7.72;2.35;;;;;;;9.23;100.00;99478.59;4914287;29;20497;-86
2023/03/31 06:11:31;;;;;;;8.73;2.72;;;;;;;9.22;100.00;99471.69;4912168;29;20097;-86
2023/03/31 06:14:05;;;;;;;8.02;2.35;;;;;;;9.21;100.00;99461.31;4898527;29;20570;-87
2023/03/31 06:16:31;;;;;;;7.45;2.38;;;;;;;9.22;100.00;99471.69;4923191;29;20062;-87
2023/03/31 06:19:00;;;;;;;7.10;2.03;;;;;;;9.20;100.00;99452.59;4914238;29;20076;-87
2023/03/31 06:21:25;;;;;;;9.43;2.55;;;;;;;9.21;100.00;99443.78;4953820;29;20452;-87
2023/03/31 06:23:55;;;;;;;8.60;2.40;;;;;;;9.22;100.00;99455.94;4929659;29;20071;-87
2023/03/31 06:26:23;;;;;;;10.82;2.78;;;;;;;9.21;100.00;99443.78;4933783;29;20036;-87
2023/03/31 06:28:48;;;;;;;11.50;2.92;;;;;;;9.24;100.00;99454.00;4934587;29;20397;-84
2023/03/31 06:31:23;;;;;;;11.00;3.13;;;;;;;9.26;100.00;99474.84;4934104;29;20060;-87
2023/03/31 06:33:58;;;;;;;10.73;2.63;;;;;;;9.27;100.00;99468.63;4930862;29;20046;-87
2023/03/31 06:36:23;;;;;;;9.32;2.20;;;;;;;9.24;100.00;99458.41;4945173;29;20122;-87
2023/03/31 06:38:57;;;;;;;8.68;2.38;;;;;;;9.20;100.00;99441.25;4934885;29;20591;-85
2023/03/31 06:41:23;;;;;;;11.70;2.83;;;;;;;9.18;100.00;99457.16;4950799;28;20462;-87
2023/03/31 06:44:09;;;;;;;9.10;2.72;;;;;;;9.23;100.00;99452.34;4950555;29;20123;-87
2023/03/31 06:47:01;;;;;;;10.98;2.88;;;;;;;9.20;100.00;99452.59;4947506;29;20042;-87
2023/03/31 06:49:25;;;;;;;8.90;2.55;;;;;;;9.23;100.00;99446.25;4949289;29;20039;-87
2023/03/31 06:52:03;;;;;;;13.23;3.17;;;;;;;9.23;100.00;99444.47;4949483;28;20035;-85
2023/03/31 06:54:55;;;;;;;12.77;3.33;;;;;;;9.22;100.00;99440.19;4943504;28;20054;-85
2023/03/31 06:57:23;;;;;;;10.00;3.05;;;;;;;9.25;100.00;99460.91;4914041;29;20584;-85
2023/03/31 07:00:26;;;;;;;17.25;4.03;;;;;;;9.27;100.00;99443.22;4929751;29;20246;-86
2023/03/31 07:03:07;;;;;;;15.80;3.97;;;;;;;9.33;100.00;99447.91;4930772;29;20409;-86
2023/03/31 07:05:55;;;;;;;14.20;3.97;;;;;;;9.39;100.00;99459.63;4922582;29;20045;-87
2023/03/31 07:08:43;;;;;;;16.90;4.10;;;;;;;9.37;100.00;99449.28;4921328;29;20492;-86
2023/03/31 07:11:11;;;;;;;16.27;3.90;;;;;;;9.41;100.00;99437.53;4944167;29;20178;-85
2023/03/31 07:13:36;;;;;;;14.82;3.60;;;;;;;9.45;100.00;99426.75;4925058;29;20101;-85
2023/03/31 07:16:06;;;;;;;15.90;3.92;;;;;;;9.48;100.00;99434.34;4941609;29;20043;-86
2023/03/31 07:18:33;;;;;;;15.05;3.72;;;;;;;9.50;100.00;99422.72;4952520;29;20062;-86
2023/03/31 07:21:06;;;;;;;15.80;3.95;;;;;;;9.51;100.00;99423.53;4964445;28;20579;-86
2023/03/31 07:23:37;;;;;;;13.75;3.33;;;;;;;9.54;100.00;99418.84;4907219;29;20139;-85
2023/03/31 07:26:06;;;;;;;9.50;2.75;;;;;;;9.55;100.00;99419.66;4907748;29;20055;-85
2023/03/31 07:28:34;;;;;;;14.55;3.25;;;;;;;9.58;100.00;99414.13;4906077;29;20081;-85
2023/03/31 07:31:21;;;;;;;10.35;2.63;;;;;;;9.62;100.00;99426.03;4911014;29;20098;-84
2023/03/31 07:33:47;;;;;;;11.77;3.13;;;;;;;9.62;100.00;99411.09;4909051;29;20396;-85
2023/03/31 07:36:18;;;;;;;12.50;2.80;;;;;;;9.68;100.00;99420.19;4894476;29;20039;-85
2023/03/31 07:38:53;;;;;;;11.68;2.80;;;;;;;9.69;100.00;99411.34;4907353;29;20129;-86
2023/03/31 07:41:23;;;;;;;13.75;2.60;;;;;;;9.74;100.00;99406.50;4891970;29;20036;-86
2023/03/31 07:43:52;;;;;;;13.23;3.03;;;;;;;9.81;100.00;99406.75;4907377;29;20585;-85
2023/03/31 07:46:38;;;;;;;11.80;2.80;;;;;;;9.87;100.00;99409.63;4918760;29;20038;-84
2023/03/31 07:49:04;;;;;;;10.32;3.58;;;;;;;9.90;100.00;99404.06;4873107;29;20070;-85
2023/03/31 07:51:30;;;;;;;13.82;3.40;;;;;;;9.95;100.00;99401.84;4902716;29;20523;-84
2023/03/31 07:53:58;;;;;;;18.75;4.00;;;;;;;10.05;100.00;99407.91;4904636;29;20126;-85
2023/03/31 07:56:29;;;;;;;19.42;4.20;;;;;;;10.11;100.00;99395.16;4924578;29;20035;-85
2023/03/31 07:58:55;;;;;;;21.48;4.30;;;;;;;10.15;100.00;99397.34;4913543;29;20047;-84
2023/03/31 08:01:28;;;;;;;19.50;4.20;;;;;;;10.21;100.00;99401.19;4894386;29;20625;-84
2023/03/31 08:04:00;;;;;;;19.15;4.60;;;;;;;10.24;100.00;99390.41;4915764;29;20036;-84
2023/03/31 08:06:34;;;;;;;20.98;4.70;;;;;;;10.34;100.00;99383.28;4951443;29;20494;-84
2023/03/31 08:09:09;;;;;;;16.52;4.28;;;;;;;10.41;100.00;99391.41;4915111;29;20544;-84
2023/03/31 08:11:35;;;;;;;16.38;4.15;;;;;;;10.48;100.00;99381.97;4931458;29;20031;-84
2023/03/31 08:14:04;;;;;;;14.80;3.95;;;;;;;10.52;100.00;99378.88;4931290;29;20067;-83
2023/03/31 08:16:30;;;;;;;19.42;5.28;;;;;;;10.57;100.00;99381.88;4936081;29;20127;-83
2023/03/31 08:18:58;;;;;;;19.13;4.63;;;;;;;10.62;100.00;99373.53;4876928;29;2048666;-83
2023/03/31 08:21:24;;;;;;;21.08;5.50;;;;;;;10.70;100.00;99370.97;4928653;29;20039;-83
2023/03/31 08:24:05;;;;;;;16.60;4.40;;;;;;;10.78;100.00;99375.47;4923475;29;20066;-83
2023/03/31 08:26:31;;;;;;;23.45;5.30;;;;;;;10.84;100.00;99369.66;4922232;29;20032;-82
2023/03/31 08:29:00;;;;;;;19.05;5.43;;;;;;;10.91;100.00;99362.78;4915782;29;20171;-82
2023/03/31 08:31:27;;;;;;;22.73;5.15;;;;;;;10.96;100.00;99364.00;4929462;29;20591;-82
2023/03/31 08:33:53;;;;;;;24.65;5.35;;;;;;;11.02;100.00;99366.97;4918308;29;20401;-82
2023/03/31 08:36:22;;;;;;;17.83;4.28;;;;;;;11.05;100.00;99370.13;4901814;29;20042;-82
2023/03/31 08:38:57;;;;;;;19.05;4.53;;;;;;;11.09;100.00;99374.13;4914691;29;20142;-82
2023/03/31 08:42:10;;;;;;;19.42;5.07;;;;;;;11.11;100.00;99374.78;4920854;29;20039;-82
2023/03/31 08:45:07;;;;;;;21.13;4.88;;;;;;;11.15;100.00;99370.03;4898463;29;20498;-82
2023/03/31 08:47:38;;;;;;;21.40;4.80;;;;;;;11.08;100.00;99364.56;4912446;29;20036;-82
2023/03/31 08:50:20;;;;;;;20.02;5.28;;;;;;;11.17;100.00;99374.16;4922836;29;20039;-82
2023/03/31 08:53:19;;;;;;;23.10;5.32;;;;;;;11.19;100.00;99363.47;4900904;29;20060;-82
2023/03/31 08:55:49;;;;;;;25.73;5.05;;;;;;;11.24;100.00;99366.50;4913511;29;20032;-82
2023/03/31 08:58:41;;;;;;;20.90;4.60;;;;;;;11.35;100.00;99362.78;4895124;29;20522;-82
2023/03/31 09:01:40;;;;;;;20.38;4.22;;;;;;;11.41;100.00;99370.06;4913159;29;20094;-81
2023/03/31 09:04:52;;;;;;;22.27;4.90;;;;;;;11.54;100.00;99370.47;4907021;29;20062;-82
2023/03/31 09:07:37;;;;;;;20.95;4.97;;;;;;;11.55;100.00;99357.13;4911984;29;20039;-81
2023/03/31 09:10:34;;;;;;;22.90;4.68;;;;;;;11.67;100.00;99364.78;4928254;29;20040;-81
2023/03/31 09:13:51;;;;;;;20.90;5.07;;;;;;;11.78;100.00;99357.47;4926562;29;20044;-82
2023/03/31 09:16:37;;;;;;;20.80;5.03;;;;;;;11.77;100.00;99350.50;4852389;29;20044;-81
2023/03/31 09:19:15;;;;;;;25.55;5.28;;;;;;;11.80;100.00;99339.69;4878269;29;20051;-82
2023/03/31 09:21:45;;;;;;;19.33;4.90;;;;;;;11.75;100.00;99346.38;4931945;29;20040;-82
2023/03/31 09:24:31;;;;;;;18.10;4.93;;;;;;;11.78;100.00;99348.72;4936279;29;20055;-82
2023/03/31 09:27:17;;;;;;;21.48;5.18;;;;;;;11.82;100.00;99352.69;4931511;29;20063;-82
2023/03/31 09:30:19;;;;;;;19.35;4.35;;;;;;;11.80;100.00;99344.13;4913668;29;20044;-82
2023/03/31 09:32:48;;;;;;;17.52;4.18;;;;;;;11.83;100.00;99334.09;4922209;29;20036;-82
2023/03/31 09:35:40;;;;;;;14.32;3.83;;;;;;;11.90;100.00;99329.84;4915621;29;20040;-82
2023/03/31 09:38:05;;;;;;;18.38;3.95;;;;;;;11.98;100.00;99317.66;4916745;29;20493;-82
2023/03/31 09:41:04;;;;;;;15.95;4.55;;;;;;;12.11;99.73;99329.44;4915090;29;20032;-82
2023/03/31 09:43:39;;;;;;;14.43;4.30;;;;;;;12.13;99.38;99324.00;4914301;29;20044;-82
2023/03/31 09:46:34;;;;;;;15.82;3.97;;;;;;;12.32;100.00;99330.78;4932729;29;20036;-82
2023/03/31 09:49:32;;;;;;;15.38;4.10;;;;;;;12.38;100.00;99323.03;4934510;29;20039;-82
2023/03/31 09:52:35;;;;;;;14.85;4.30;;;;;;;12.50;98.05;99337.59;4925182;29;20413;-82
2023/03/31 09:55:14;;;;;;;18.17;4.50;;;;;;;12.55;98.01;99314.19;4934085;29;20382;-82
2023/03/31 09:57:42;;;;;;;13.07;3.50;;;;;;;12.60;95.68;99311.03;4911745;29;20068;-82
2023/03/31 10:00:20;;;;;;;15.98;4.30;;;;;;;12.68;97.82;99318.97;4944949;28;20036;-82
2023/03/31 10:03:00;;;;;;;16.80;4.03;;;;;;;12.71;94.10;99312.53;4924679;29;20036;-82
2023/03/31 10:05:50;;;;;;;16.23;4.13;;;;;;;12.92;93.08;99314.69;4919985;29;20046;-83
2023/03/31 10:08:36;;;;;;;12.93;3.47;;;;;;;12.93;91.70;99305.78;4915698;29;20402;-83
2023/03/31 10:11:05;;;;;;;11.18;3.38;;;;;;;12.82;89.94;99317.50;4914381;29;20036;-83
2023/03/31 10:14:17;;;;;;;13.93;3.72;;;;;;;12.73;93.47;99310.53;4929449;29;20040;-83
2023/03/31 10:16:52;;;;;;;13.23;3.22;;;;;;;12.55;92.81;99303.63;4929454;29;20142;-83
2023/03/31 10:19:39;;;;;;;10.82;3.33;;;;;;;12.57;92.57;99311.38;4949729;28;20098;-83
2023/03/31 10:22:16;;;;;;;12.15;3.30;;;;;;;12.55;91.13;99298.34;4920421;29;20040;-83
2023/03/31 10:25:09;;;;;;;10.55;2.88;;;;;;;12.54;91.16;99301.97;4915566;29;20040;-83
2023/03/31 10:28:01;;;;;;;13.07;3.13;;;;;;;12.60;92.03;99295.22;4899590;29;20225;-83
2023/03/31 10:30:52;;;;;;;13.73;3.50;;;;;;;12.48;92.11;99301.81;4879986;29;20040;-84
2023/03/31 10:33:30;;;;;;;13.45;4.05;;;;;;;12.36;94.30;99282.00;4875853;29;20049;-84
2023/03/31 10:36:30;;;;;;;11.27;3.00;;;;;;;12.28;94.18;99293.34;4880710;29;20189;-84
2023/03/31 10:38:59;;;;;;;14.65;3.58;;;;;;;12.14;92.81;99292.19;4906298;29;20678;-86
2023/03/31 10:41:32;;;;;;;15.68;3.70;;;;;;;12.08;95.12;99290.19;4945878;28;20040;-84
2023/03/31 10:44:32;;;;;;;15.20;3.75;;;;;;;12.11;95.74;99286.41;4945641;29;20032;-85
2023/03/31 10:47:13;;;;;;;15.68;3.42;;;;;;;12.26;96.73;99279.50;4918652;29;20042;-85
2023/03/31 10:49:47;;;;;;;15.38;3.80;;;;;;;12.33;94.98;99280.50;4923736;29;20066;-86
2023/03/31 10:52:26;;;;;;;15.82;3.95;;;;;;;12.39;92.70;99277.22;4943877;29;20067;-84
2023/03/31 10:55:01;;;;;;;15.80;4.03;;;;;;;12.39;93.23;99269.28;4930204;29;20036;-86
2023/03/31 10:58:06;;;;;;;14.95;3.97;;;;;;;12.48;93.10;99260.44;4952185;28;20039;-84
2023/03/31 11:00:56;;;;;;;15.15;4.15;;;;;;;12.49;91.82;99267.34;4918208;29;20048;-86
2023/03/31 11:03:40;;;;;;;12.93;3.72;;;;;;;12.42;94.86;99269.00;4934875;28;20485;-86
2023/03/31 11:06:26;;;;;;;17.15;4.00;;;;;;;12.31;95.39;99269.28;4917061;29;20110;-87
2023/03/31 11:09:02;;;;;;;17.67;4.35;;;;;;;12.16;94.36;99279.66;4920869;29;20032;-87
2023/03/31 11:11:49;;;;;;;13.85;4.15;;;;;;;12.08;95.91;99263.84;4913690;29;20032;-86
2023/03/31 11:14:56;;;;;;;16.60;4.00;;;;;;;12.12;98.30;99269.63;4904999;29;20049;-86
2023/03/31 11:17:57;;;;;;;17.95;4.05;;;;;;;12.17;98.65;99262.84;4909879;29;20047;-87
2023/03/31 11:20:46;;;;;;;18.25;3.92;;;;;;;12.30;98.99;99251.81;4851456;29;20066;-87
2023/03/31 11:23:29;;;;;;;18.23;4.72;;;;;;;12.41;97.23;99254.16;4938401;29;20050;-86
2023/03/31 11:26:13;;;;;;;18.05;4.43;;;;;;;12.49;96.50;99262.06;4917567;29;20027;-85
2023/03/31 11:28:50;;;;;;;18.27;4.53;;;;;;;12.61;95.22;99248.53;4933057;29;20040;-85
2023/03/31 11:31:30;;;;;;;14.60;4.60;;;;;;;12.70;93.79;99240.44;4941577;29;20118;-85
2023/03/31 11:34:32;;;;;;;16.65;4.10;;;;;;;12.84;92.18;99233.69;4927959;29;20664;-85
2023/03/31 11:37:17;;;;;;;14.75;4.40;;;;;;;12.84;88.87;99238.97;4940006;29;20035;-84
2023/03/31 11:39:59;;;;;;;16.73;4.47;;;;;;;12.77;89.55;99240.59;4931241;29;20126;-86
2023/03/31 11:42:44;;;;;;;17.83;4.38;;;;;;;12.62;88.22;99240.47;4930609;29;20489;-86
2023/03/31 11:45:28;;;;;;;14.20;3.58;;;;;;;12.61;88.87;99233.53;4931908;29;20043;-86
2023/03/31 11:47:58;;;;;;;15.05;4.00;;;;;;;12.55;87.43;99226.28;4940261;29;20035;-85
2023/03/31 11:50:45;;;;;;;15.02;3.88;;;;;;;12.64;86.08;99238.47;4932621;29;20023;-86
2023/03/31 11:53:26;;;;;;;16.73;4.28;;;;;;;12.75;87.39;99224.94;4932573;29;20047;-86
2023/03/31 11:55:56;;;;;;;16.40;4.05;;;;;;;12.81;84.85;99228.75;4915630;29;20489;-86
2023/03/31 11:58:40;;;;;;;11.20;3.22;;;;;;;12.95;83.57;99214.03;4931006;29;20027;-86
2023/03/31 12:01:31;;;;;;;14.60;3.90;;;;;;;13.02;83.25;99233.47;4926920;29;20043;-87
2023/03/31 12:04:22;;;;;;;13.27;3.90;;;;;;;13.11;82.74;99209.50;4938877;29;20071;-87
2023/03/31 12:07:00;;;;;;;11.48;3.30;;;;;;;13.11;80.61;99209.50;4879344;29;20057;-87
2023/03/31 12:09:50;;;;;;;10.57;3.00;;;;;;;13.14;80.70;99214.44;4863850;29;20047;-87
2023/03/31 12:12:21;;;;;;;12.77;3.05;;;;;;;13.04;80.51;99202.44;4874305;29;20049;-86
2023/03/31 12:15:26;;;;;;;12.68;3.60;;;;;;;13.13;82.31;99206.69;4875244;29;20045;-86
2023/03/31 12:18:24;;;;;;;9.20;2.92;;;;;;;13.16;81.82;99193.97;4896736;29;20039;-88
2023/03/31 12:20:57;;;;;;;13.13;2.88;;;;;;;13.18;81.55;99205.22;4941247;29;20051;-86
2023/03/31 12:23:33;;;;;;;10.02;2.80;;;;;;;13.23;82.11;99196.00;4937709;29;20122;-86
2023/03/31 12:26:11;;;;;;;10.55;2.70;;;;;;;13.36;82.18;99193.63;4941365;29;20044;-86
2023/03/31 12:28:47;;;;;;;10.20;2.92;;;;;;;13.33;81.74;99180.75;4931512;29;20047;-86
2023/03/31 12:31:26;;;;;;;10.93;3.30;;;;;;;13.42;82.70;99169.16;4946203;29;20075;-86